sensor_id;sensor_type;location;lat;lon;timestamp;pressure;altitude;pressure_sealevel;temperature;humidity
43553;BME280;29153;42.696;23.218;2023-05-19T00:02:25;94704.87;;;10.69;100.00
43553;BME280;29153;42.696;23.218;2023-05-19T00:04:53;94703.27;;;10.68;100.00
43553;BME280;29153;42.696;23.218;2023-05-19T00:07:22;94711.22;;;10.68;100.00
43553;BME280;29153;42.696;23.218;2023-05-19T00:09:51;94701.95;;;10.68;100.00
43553;BME280;29153;42.696;23.218;2023-05-19T00:12:19;94704.05;;;10.71;100.00
43553;BME280;29153;42.696;23.218;2023-05-19T00:14:48;94704.59;;;10.68;100.00
43553;BME280;29153;42.696;23.218;2023-05-19T00:17:15;94702.45;;;10.70;100.00
43553;BME280;29153;42.696;23.218;2023-05-19T00:19:43;94699.52;;;10.79;100.00
43553;BME280;29153;42.696;23.218;2023-05-19T00:22:11;94697.14;;;10.80;100.00
43553;BME280;29153;42.696;23.218;2023-05-19T00:24:38;94698.44;;;10.83;100.00
43553;BME280;29153;42.696;23.218;2023-05-19T00:27:06;94688.94;;;10.77;100.00
43553;BME280;29153;42.696;23.218;2023-05-19T00:29:33;94696.59;;;10.86;100.00
43553;BME280;29153;42.696;23.218;2023-05-19T00:32:00;94687.61;;;10.74;100.00
43553;BME280;29153;42.696;23.218;2023-05-19T00:34:28;94690.27;;;10.77;100.00
43553;BME280;29153;42.696;23.218;2023-05-19T00:36:55;94682.85;;;10.71;100.00
43553;BME280;29153;42.696;23.218;2023-05-19T00:39:23;94687.33;;;10.78;100.00
43553;BME280;29153;42.696;23.218;2023-05-19T00:41:50;94695.03;;;10.77;100.00
43553;BME280;29153;42.696;23.218;2023-05-19T00:44:18;94689.21;;;10.70;100.00
43553;BME280;29153;42.696;23.218;2023-05-19T00:46:45;94686.84;;;10.74;100.00
43553;BME280;29153;42.696;23.218;2023-05-19T00:49:13;94688.97;;;10.69;100.00
43553;BME280;29153;42.696;23.218;2023-05-19T00:51:40;94680.50;;;10.65;100.00
43553;BME280;29153;42.696;23.218;2023-05-19T00:54:08;94680.75;;;10.66;100.00
43553;BME280;29153;42.696;23.218;2023-05-19T00:56:36;94677.09;;;10.57;100.00
43553;BME280;29153;42.696;23.218;2023-05-19T00:59:04;94673.10;;;10.54;100.00
43553;BME280;29153;42.696;23.218;2023-05-19T01:01:31;94676.30;;;10.46;100.00
43553;BME280;29153;42.696;23.218;2023-05-19T01:04:00;94678.69;;;10.40;100.00
43553;BME280;29153;42.696;23.218;2023-05-19T01:06:29;94680.03;;;10.32;100.00
43553;BME280;29153;42.696;23.218;2023-05-19T01:08:56;94686.94;;;10.21;100.00
43553;BME280;29153;42.696;23.218;2023-05-19T01:11:24;94683.20;;;10.12;100.00
43553;BME280;29153;42.696;23.218;2023-05-19T01:13:51;94675.80;;;10.03;100.00
43553;BME280;29153;42.696;23.218;2023-05-19T01:16:28;94677.39;;;9.94;100.00
43553;BME280;29153;42.696;23.218;2023-05-19T01:27:42;94691.41;;;9.70;100.00
43553;BME280;29153;42.696;23.218;2023-05-19T01:30:34;94691.12;;;9.58;100.00
43553;BME280;29153;42.696;23.218;2023-05-19T01:32:54;94686.09;;;9.44;100.00
43553;BME280;29153;42.696;23.218;2023-05-19T01:35:23;94684.77;;;9.37;100.00
43553;BME280;29153;42.696;23.218;2023-05-19T01:37:53;94686.03;;;9.24;100.00
43553;BME280;29153;42.696;23.218;2023-05-19T01:40:22;94687.33;;;9.17;100.00
43553;BME280;29153;42.696;23.218;2023-05-19T01:42:53;94685.49;;;9.14;100.00
43553;BME280;29153;42.696;23.218;2023-05-19T01:45:21;94687.84;;;9.06;100.00
43553;BME280;29153;42.696;23.218;2023-05-19T01:47:50;94689.69;;;9.05;100.00
43553;BME280;29153;42.696;23.218;2023-05-19T01:50:18;94690.47;;;8.98;100.00
43553;BME280;29153;42.696;23.218;2023-05-19T01:52:46;94693.28;;;8.82;100.00
43553;BME280;29153;42.696;23.218;2023-05-19T01:55:13;94696.72;;;8.82;100.00
43553;BME280;29153;42.696;23.218;2023-05-19T02:00:35;94694.85;;;8.75;100.00
43553;BME280;29153;42.696;23.218;2023-05-19T02:08:33;94698.97;;;8.56;100.00
43553;BME280;29153;42.696;23.218;2023-05-19T02:11:06;94698.92;;;8.46;100.00
43553;BME280;29153;42.696;23.218;2023-05-19T02:13:35;94698.92;;;8.46;100.00
43553;BME280;29153;42.696;23.218;2023-05-19T02:16:05;94691.73;;;8.39;100.00
43553;BME280;29153;42.696;23.218;2023-05-19T02:18:33;94694.63;;;8.35;100.00
43553;BME280;29153;42.696;23.218;2023-05-19T02:21:01;94695.94;;;8.30;100.00
43553;BME280;29153;42.696;23.218;2023-05-19T02:23:29;94704.55;;;8.20;100.00
43553;BME280;29153;42.696;23.218;2023-05-19T02:25:57;94712.78;;;8.29;100.00
43553;BME280;29153;42.696;23.218;2023-05-19T02:28:24;94706.19;;;8.29;100.00
43553;BME280;29153;42.696;23.218;2023-05-19T02:30:53;94710.91;;;8.27;100.00
43553;BME280;29153;42.696;23.218;2023-05-19T02:33:21;94714.86;;;8.27;100.00
43553;BME280;29153;42.696;23.218;2023-05-19T02:35:50;94709.86;;;8.25;100.00
43553;BME280;29153;42.696;23.218;2023-05-19T02:38:17;94711.19;;;8.28;100.00
43553;BME280;29153;42.696;23.218;2023-05-19T02:40:45;94704.37;;;8.32;100.00
43553;BME280;29153;42.696;23.218;2023-05-19T02:43:12;94703.85;;;8.30;100.00
43553;BME280;29153;42.696;23.218;2023-05-19T02:45:40;94702.54;;;8.35;100.00
43553;BME280;29153;42.696;23.218;2023-05-19T02:48:07;94700.98;;;8.36;100.00
43553;BME280;29153;42.696;23.218;2023-05-19T02:50:35;94711.81;;;8.40;100.00
43553;BME280;29153;42.696;23.218;2023-05-19T02:53:03;94710.33;;;8.54;100.00
43553;BME280;29153;42.696;23.218;2023-05-19T02:55:30;94707.41;;;8.50;100.00
43553;BME280;29153;42.696;23.218;2023-05-19T02:57:58;94714.53;;;8.50;100.00
43553;BME280;29153;42.696;23.218;2023-05-19T03:00:25;94711.40;;;8.55;100.00
43553;BME280;29153;42.696;23.218;2023-05-19T03:02:53;94711.64;;;8.51;100.00
43553;BME280;29153;42.696;23.218;2023-05-19T03:05:20;94717.65;;;8.42;100.00
43553;BME280;29153;42.696;23.218;2023-05-19T03:07:48;94708.69;;;8.48;100.00
43553;BME280;29153;42.696;23.218;2023-05-19T03:10:15;94712.69;;;8.53;100.00
43553;BME280;29153;42.696;23.218;2023-05-19T03:12:43;94721.89;;;8.48;100.00
43553;BME280;29153;42.696;23.218;2023-05-19T03:15:10;94722.41;;;8.42;100.00
43553;BME280;29153;42.696;23.218;2023-05-19T03:17:40;94725.05;;;8.45;100.00
43553;BME280;29153;42.696;23.218;2023-05-19T03:20:08;94722.16;;;8.46;100.00
43553;BME280;29153;42.696;23.218;2023-05-19T03:22:36;94716.09;;;8.46;100.00
43553;BME280;29153;42.696;23.218;2023-05-19T03:25:03;94723.21;;;8.45;100.00
43553;BME280;29153;42.696;23.218;2023-05-19T03:27:31;94717.92;;;8.43;100.00
43553;BME280;29153;42.696;23.218;2023-05-19T03:29:58;94724.80;;;8.46;100.00
43553;BME280;29153;42.696;23.218;2023-05-19T03:32:26;94717.93;;;8.45;100.00
43553;BME280;29153;42.696;23.218;2023-05-19T03:34:53;94729.28;;;8.46;100.00
43553;BME280;29153;42.696;23.218;2023-05-19T03:37:21;94722.97;;;8.47;100.00
43553;BME280;29153;42.696;23.218;2023-05-19T03:39:48;94722.65;;;8.41;100.00
43553;BME280;29153;42.696;23.218;2023-05-19T03:42:16;94726.13;;;8.49;100.00
43553;BME280;29153;42.696;23.218;2023-05-19T03:44:43;94723.80;;;8.55;100.00
43553;BME280;29153;42.696;23.218;2023-05-19T03:47:11;94722.20;;;8.51;100.00
43553;BME280;29153;42.696;23.218;2023-05-19T03:49:38;94717.45;;;8.56;100.00
43553;BME280;29153;42.696;23.218;2023-05-19T03:52:06;94720.16;;;8.63;100.00
43553;BME280;29153;42.696;23.218;2023-05-19T03:54:34;94725.72;;;8.67;100.00
43553;BME280;29153;42.696;23.218;2023-05-19T03:57:03;94720.22;;;8.76;100.00
43553;BME280;29153;42.696;23.218;2023-05-19T03:59:31;94723.91;;;8.75;100.00
43553;BME280;29153;42.696;23.218;2023-05-19T04:02:00;94716.81;;;8.83;100.00
43553;BME280;29153;42.696;23.218;2023-05-19T04:04:28;94727.92;;;8.85;100.00
43553;BME280;29153;42.696;23.218;2023-05-19T04:06:55;94728.17;;;8.86;100.00
43553;BME280;29153;42.696;23.218;2023-05-19T04:09:23;94729.52;;;8.91;100.00
43553;BME280;29153;42.696;23.218;2023-05-19T04:11:50;94732.19;;;8.96;100.00
43553;BME280;29153;42.696;23.218;2023-05-19T04:14:18;94736.98;;;9.04;100.00
43553;BME280;29153;42.696;23.218;2023-05-19T04:16:45;94735.43;;;9.13;100.00
43553;BME280;29153;42.696;23.218;2023-05-19T04:19:13;94737.34;;;9.31;100.00
43553;BME280;29153;42.696;23.218;2023-05-19T04:21:40;94737.13;;;9.55;100.00
43553;BME280;29153;42.696;23.218;2023-05-19T04:24:08;94735.34;;;9.78;100.00
43553;BME280;29153;42.696;23.218;2023-05-19T04:26:35;94740.13;;;9.96;100.00
43553;BME280;29153;42.696;23.218;2023-05-19T04:29:04;94733.27;;;10.26;100.00
43553;BME280;29153;42.696;23.218;2023-05-19T04:31:31;94740.11;;;10.60;100.00
43553;BME280;29153;42.696;23.218;2023-05-19T04:34:00;94741.92;;;10.79;100.00
43553;BME280;29153;42.696;23.218;2023-05-19T04:36:28;94745.07;;;10.94;100.00
43553;BME280;29153;42.696;23.218;2023-05-19T04:38:55;94744.75;;;11.11;100.00
43553;BME280;29153;42.696;23.218;2023-05-19T04:41:24;94750.80;;;11.24;100.00
43553;BME280;29153;42.696;23.218;2023-05-19T04:43:52;94743.87;;;11.33;100.00
43553;BME280;29153;42.696;23.218;2023-05-19T04:46:19;94722.09;;;11.36;100.00
43553;BME280;29153;42.696;23.218;2023-05-19T04:48:49;94743.52;;;11.50;100.00
43553;BME280;29153;42.696;23.218;2023-05-19T04:51:16;94758.09;;;11.52;100.00
43553;BME280;29153;42.696;23.218;2023-05-19T04:53:45;94755.09;;;11.64;100.00
43553;BME280;29153;42.696;23.218;2023-05-19T04:56:12;94759.34;;;11.67;100.00
43553;BME280;29153;42.696;23.218;2023-05-19T04:58:40;94759.11;;;11.61;100.00
43553;BME280;29153;42.696;23.218;2023-05-19T05:01:10;94759.11;;;11.61;100.00
43553;BME280;29153;42.696;23.218;2023-05-19T05:03:39;94754.00;;;11.77;100.00
43553;BME280;29153;42.696;23.218;2023-05-19T05:06:06;94758.48;;;11.84;100.00
43553;BME280;29153;42.696;23.218;2023-05-19T05:08:35;94756.83;;;11.91;100.00
43553;BME280;29153;42.696;23.218;2023-05-19T05:11:04;94757.58;;;12.02;100.00
43553;BME280;29153;42.696;23.218;2023-05-19T05:13:32;94751.77;;;11.95;100.00
43553;BME280;29153;42.696;23.218;2023-05-19T05:16:00;94754.39;;;12.02;100.00
43553;BME280;29153;42.696;23.218;2023-05-19T05:18:29;94758.08;;;12.04;100.00
43553;BME280;29153;42.696;23.218;2023-05-19T05:20:57;94761.73;;;12.13;100.00
43553;BME280;29153;42.696;23.218;2023-05-19T05:23:24;94760.11;;;12.17;100.00
43553;BME280;29153;42.696;23.218;2023-05-19T05:25:52;94755.23;;;12.29;100.00
43553;BME280;29153;42.696;23.218;2023-05-19T05:28:20;94755.16;;;12.37;100.00
43553;BME280;29153;42.696;23.218;2023-05-19T05:30:47;94762.00;;;12.45;100.00
43553;BME280;29153;42.696;23.218;2023-05-19T05:33:15;94750.80;;;12.53;100.00
43553;BME280;29153;42.696;23.218;2023-05-19T05:35:45;94754.63;;;12.68;100.00
43553;BME280;29153;42.696;23.218;2023-05-19T05:38:12;94755.56;;;12.80;100.00
43553;BME280;29153;42.696;23.218;2023-05-19T05:40:40;94755.56;;;12.80;100.00
43553;BME280;29153;42.696;23.218;2023-05-19T05:43:07;94759.60;;;13.01;100.00
43553;BME280;29153;42.696;23.218;2023-05-19T05:45:34;94760.09;;;13.06;100.00
43553;BME280;29153;42.696;23.218;2023-05-19T05:48:02;94755.77;;;13.15;100.00
43553;BME280;29153;42.696;23.218;2023-05-19T05:50:30;94755.77;;;13.15;100.00
43553;BME280;29153;42.696;23.218;2023-05-19T05:52:59;94759.44;;;13.21;100.00
43553;BME280;29153;42.696;23.218;2023-05-19T05:55:28;94759.44;;;13.21;100.00
43553;BME280;29153;42.696;23.218;2023-05-19T05:57:56;94767.02;;;13.31;99.98
43553;BME280;29153;42.696;23.218;2023-05-19T06:00:24;94769.84;;;13.39;99.71
43553;BME280;29153;42.696;23.218;2023-05-19T06:02:53;94765.63;;;13.59;99.64
43553;BME280;29153;42.696;23.218;2023-05-19T06:05:22;94765.63;;;13.59;99.64
43553;BME280;29153;42.696;23.218;2023-05-19T06:07:50;94776.90;;;13.73;100.00
43553;BME280;29153;42.696;23.218;2023-05-19T06:10:17;94780.27;;;13.78;98.75
43553;BME280;29153;42.696;23.218;2023-05-19T06:12:45;94787.08;;;13.87;98.02
43553;BME280;29153;42.696;23.218;2023-05-19T06:15:12;94786.36;;;14.00;94.99
43553;BME280;29153;42.696;23.218;2023-05-19T06:17:40;94786.67;;;13.98;94.56
43553;BME280;29153;42.696;23.218;2023-05-19T06:20:07;94789.66;;;13.94;93.10
43553;BME280;29153;42.696;23.218;2023-05-19T06:22:35;94781.65;;;14.13;95.43
43553;BME280;29153;42.696;23.218;2023-05-19T06:25:04;94781.39;;;14.12;94.40
43553;BME280;29153;42.696;23.218;2023-05-19T06:27:31;94782.00;;;14.25;94.11
43553;BME280;29153;42.696;23.218;2023-05-19T06:29:58;94780.48;;;14.40;94.49
43553;BME280;29153;42.696;23.218;2023-05-19T06:32:25;94786.42;;;14.16;92.12
43553;BME280;29153;42.696;23.218;2023-05-19T06:34:54;94788.05;;;14.31;92.86
43553;BME280;29153;42.696;23.218;2023-05-19T06:37:22;94790.60;;;14.41;93.06
43553;BME280;29153;42.696;23.218;2023-05-19T06:39:51;94791.94;;;14.41;94.63
43553;BME280;29153;42.696;23.218;2023-05-19T06:42:20;94785.41;;;14.49;94.94
43553;BME280;29153;42.696;23.218;2023-05-19T06:44:51;94792.60;;;14.49;92.06
43553;BME280;29153;42.696;23.218;2023-05-19T06:47:19;94780.77;;;14.20;90.78
43553;BME280;29153;42.696;23.218;2023-05-19T06:49:47;94788.06;;;14.49;91.17
43553;BME280;29153;42.696;23.218;2023-05-19T06:52:19;94788.06;;;14.49;91.17
43553;BME280;29153;42.696;23.218;2023-05-19T06:54:48;94794.60;;;14.57;89.16
43553;BME280;29153;42.696;23.218;2023-05-19T06:57:16;94796.14;;;14.61;89.05
43553;BME280;29153;42.696;23.218;2023-05-19T06:59:43;94801.06;;;14.70;86.98
43553;BME280;29153;42.696;23.218;2023-05-19T07:02:11;94796.80;;;14.85;87.89
43553;BME280;29153;42.696;23.218;2023-05-19T07:04:39;94801.13;;;14.81;86.83
43553;BME280;29153;42.696;23.218;2023-05-19T07:07:07;94810.92;;;14.85;87.17
43553;BME280;29153;42.696;23.218;2023-05-19T07:09:35;94801.69;;;14.96;87.69
43553;BME280;29153;42.696;23.218;2023-05-19T07:12:03;94807.25;;;15.14;88.29
43553;BME280;29153;42.696;23.218;2023-05-19T07:14:30;94798.10;;;15.17;85.71
43553;BME280;29153;42.696;23.218;2023-05-19T07:16:58;94804.20;;;15.34;85.10
43553;BME280;29153;42.696;23.218;2023-05-19T07:19:25;94805.92;;;15.41;86.48
43553;BME280;29153;42.696;23.218;2023-05-19T07:21:53;94804.34;;;15.70;84.43
43553;BME280;29153;42.696;23.218;2023-05-19T07:24:22;94803.05;;;15.92;89.03
43553;BME280;29153;42.696;23.218;2023-05-19T07:26:50;94810.31;;;16.03;85.08
43553;BME280;29153;42.696;23.218;2023-05-19T07:29:17;94813.47;;;16.29;86.27
43553;BME280;29153;42.696;23.218;2023-05-19T07:31:45;94818.97;;;16.47;83.41
43553;BME280;29153;42.696;23.218;2023-05-19T07:34:12;94823.00;;;16.69;81.09
43553;BME280;29153;42.696;23.218;2023-05-19T07:36:40;94816.68;;;16.87;81.64
43553;BME280;29153;42.696;23.218;2023-05-19T07:39:07;94814.58;;;17.17;80.34
43553;BME280;29153;42.696;23.218;2023-05-19T07:41:35;94813.77;;;17.48;77.95
43553;BME280;29153;42.696;23.218;2023-05-19T07:44:03;94815.16;;;17.76;78.18
43553;BME280;29153;42.696;23.218;2023-05-19T07:46:36;94814.11;;;17.94;75.85
43553;BME280;29153;42.696;23.218;2023-05-19T07:49:04;94810.09;;;18.40;78.80
43553;BME280;29153;42.696;23.218;2023-05-19T07:51:31;94808.83;;;18.72;75.57
43553;BME280;29153;42.696;23.218;2023-05-19T07:53:59;94811.98;;;18.91;73.39
43553;BME280;29153;42.696;23.218;2023-05-19T07:56:27;94808.48;;;19.07;71.86
43553;BME280;29153;42.696;23.218;2023-05-19T07:58:55;94810.44;;;19.36;68.39
43553;BME280;29153;42.696;23.218;2023-05-19T08:01:22;94802.66;;;19.52;74.04
43553;BME280;29153;42.696;23.218;2023-05-19T08:03:50;94815.03;;;19.68;69.15
43553;BME280;29153;42.696;23.218;2023-05-19T08:06:17;94805.95;;;19.81;70.78
43553;BME280;29153;42.696;23.218;2023-05-19T08:08:44;94816.51;;;19.71;67.94
43553;BME280;29153;42.696;23.218;2023-05-19T08:11:12;94819.30;;;19.45;67.90
43553;BME280;29153;42.696;23.218;2023-05-19T08:13:40;94818.44;;;19.62;64.46
43553;BME280;29153;42.696;23.218;2023-05-19T08:16:07;94807.05;;;19.80;68.69
43553;BME280;29153;42.696;23.218;2023-05-19T08:18:34;94811.88;;;20.10;65.06
43553;BME280;29153;42.696;23.218;2023-05-19T08:21:02;94810.23;;;20.17;64.92
43553;BME280;29153;42.696;23.218;2023-05-19T08:23:30;94800.22;;;20.62;68.26
43553;BME280;29153;42.696;23.218;2023-05-19T08:25:57;94816.92;;;20.61;63.38
43553;BME280;29153;42.696;23.218;2023-05-19T08:28:25;94805.59;;;20.26;66.94
43553;BME280;29153;42.696;23.218;2023-05-19T08:30:52;94808.56;;;20.54;67.35
43553;BME280;29153;42.696;23.218;2023-05-19T08:33:19;94803.95;;;20.96;65.08
43553;BME280;29153;42.696;23.218;2023-05-19T08:35:48;94797.69;;;21.04;66.35
43553;BME280;29153;42.696;23.218;2023-05-19T08:38:15;94796.77;;;21.33;67.19
43553;BME280;29153;42.696;23.218;2023-05-19T08:40:45;94801.48;;;21.30;62.08
43553;BME280;29153;42.696;23.218;2023-05-19T08:43:13;94807.14;;;20.57;60.50
43553;BME280;29153;42.696;23.218;2023-05-19T08:45:44;94798.80;;;21.03;67.26
43553;BME280;29153;42.696;23.218;2023-05-19T08:48:17;94793.70;;;20.89;68.42
43553;BME280;29153;42.696;23.218;2023-05-19T08:51:07;94793.14;;;21.23;65.50
43553;BME280;29153;42.696;23.218;2023-05-19T08:53:19;94792.50;;;21.26;63.21
43553;BME280;29153;42.696;23.218;2023-05-19T08:56:07;94797.55;;;21.21;60.83
43553;BME280;29153;42.696;23.218;2023-05-19T08:58:39;94798.30;;;21.16;60.49
43553;BME280;29153;42.696;23.218;2023-05-19T09:01:09;94805.80;;;20.57;60.56
43553;BME280;29153;42.696;23.218;2023-05-19T09:03:38;94799.16;;;20.75;61.04
43553;BME280;29153;42.696;23.218;2023-05-19T09:06:07;94801.81;;;21.02;59.61
43553;BME280;29153;42.696;23.218;2023-05-19T09:08:35;94765.48;;;21.08;63.39
43553;BME280;29153;42.696;23.218;2023-05-19T09:11:02;94777.25;;;21.54;66.99
43553;BME280;29153;42.696;23.218;2023-05-19T09:13:30;94784.55;;;21.78;63.57
43553;BME280;29153;42.696;23.218;2023-05-19T09:15:57;94792.62;;;21.03;58.66
43553;BME280;29153;42.696;23.218;2023-05-19T09:18:26;94785.16;;;20.05;58.23
43553;BME280;29153;42.696;23.218;2023-05-19T09:20:58;94784.27;;;20.36;58.47
43553;BME280;29153;42.696;23.218;2023-05-19T09:23:30;94776.30;;;20.60;62.43
43553;BME280;29153;42.696;23.218;2023-05-19T09:26:04;94777.22;;;20.91;63.49
43553;BME280;29153;42.696;23.218;2023-05-19T09:28:36;94780.08;;;20.80;64.64
43553;BME280;29153;42.696;23.218;2023-05-19T09:31:05;94777.30;;;20.35;62.57
43553;BME280;29153;42.696;23.218;2023-05-19T09:33:37;94769.30;;;20.47;65.54
43553;BME280;29153;42.696;23.218;2023-05-19T09:36:05;94762.13;;;20.45;68.33
43553;BME280;29153;42.696;23.218;2023-05-19T09:38:35;94786.19;;;19.62;59.25
43553;BME280;29153;42.696;23.218;2023-05-19T09:41:04;94771.89;;;19.55;63.53
43553;BME280;29153;42.696;23.218;2023-05-19T09:43:33;94777.00;;;19.78;63.63
43553;BME280;29153;42.696;23.218;2023-05-19T09:46:06;94776.88;;;19.74;62.38
43553;BME280;29153;42.696;23.218;2023-05-19T09:48:34;94773.89;;;19.52;63.19
43553;BME280;29153;42.696;23.218;2023-05-19T09:51:01;94770.66;;;19.97;60.93
43553;BME280;29153;42.696;23.218;2023-05-19T09:53:30;94765.61;;;20.16;63.36
43553;BME280;29153;42.696;23.218;2023-05-19T09:55:59;94768.67;;;20.21;63.78
43553;BME280;29153;42.696;23.218;2023-05-19T09:58:32;94765.59;;;20.10;61.63
43553;BME280;29153;42.696;23.218;2023-05-19T10:01:02;94761.94;;;20.21;61.85
43553;BME280;29153;42.696;23.218;2023-05-19T10:03:30;94769.54;;;20.54;58.57
43553;BME280;29153;42.696;23.218;2023-05-19T10:06:01;94766.25;;;20.69;63.89
43553;BME280;29153;42.696;23.218;2023-05-19T10:08:31;94756.31;;;20.88;61.52
43553;BME280;29153;42.696;23.218;2023-05-19T10:10:59;94746.34;;;21.27;69.16
43553;BME280;29153;42.696;23.218;2023-05-19T10:13:28;94754.34;;;21.66;59.58
43553;BME280;29153;42.696;23.218;2023-05-19T10:15:57;94749.50;;;21.54;62.74
43553;BME280;29153;42.696;23.218;2023-05-19T10:18:25;94748.05;;;21.62;61.71
43553;BME280;29153;42.696;23.218;2023-05-19T10:20:55;94744.23;;;22.12;63.54
43553;BME280;29153;42.696;23.218;2023-05-19T10:23:23;94753.97;;;22.29;51.93
43553;BME280;29153;42.696;23.218;2023-05-19T10:25:53;94746.81;;;22.48;54.11
43553;BME280;29153;42.696;23.218;2023-05-19T10:28:22;94745.70;;;22.43;52.31
43553;BME280;29153;42.696;23.218;2023-05-19T10:30:55;94738.42;;;22.65;55.28
43553;BME280;29153;42.696;23.218;2023-05-19T10:39:06;94734.19;;;23.24;53.62
43553;BME280;29153;42.696;23.218;2023-05-19T10:46:42;94736.11;;;23.61;52.85
43553;BME280;29153;42.696;23.218;2023-05-19T10:49:08;94735.42;;;23.48;50.93
43553;BME280;29153;42.696;23.218;2023-05-19T10:51:36;94726.39;;;23.66;55.96
43553;BME280;29153;42.696;23.218;2023-05-19T10:54:07;94726.66;;;23.86;48.87
43553;BME280;29153;42.696;23.218;2023-05-19T10:56:38;94734.20;;;23.86;50.10
43553;BME280;29153;42.696;23.218;2023-05-19T10:59:07;94722.36;;;24.10;49.65
43553;BME280;29153;42.696;23.218;2023-05-19T11:01:36;94724.64;;;24.08;44.83
43553;BME280;29153;42.696;23.218;2023-05-19T11:04:07;94720.73;;;23.33;46.24
43553;BME280;29153;42.696;23.218;2023-05-19T11:06:36;94721.38;;;23.05;48.37
43553;BME280;29153;42.696;23.218;2023-05-19T11:09:14;94717.28;;;22.89;52.04
43553;BME280;29153;42.696;23.218;2023-05-19T11:11:52;94721.02;;;22.29;47.99
43553;BME280;29153;42.696;23.218;2023-05-19T11:14:25;94714.58;;;21.94;50.84
43553;BME280;29153;42.696;23.218;2023-05-19T11:16:52;94709.51;;;21.92;51.81
43553;BME280;29153;42.696;23.218;2023-05-19T11:19:27;94705.79;;;21.85;50.83
43553;BME280;29153;42.696;23.218;2023-05-19T11:21:55;94716.59;;;21.66;49.58
43553;BME280;29153;42.696;23.218;2023-05-19T11:24:34;94703.46;;;21.47;53.79
43553;BME280;29153;42.696;23.218;2023-05-19T11:27:19;94711.31;;;21.21;51.25
43553;BME280;29153;42.696;23.218;2023-05-19T11:29:48;94702.66;;;21.52;52.99
43553;BME280;29153;42.696;23.218;2023-05-19T11:32:16;94704.77;;;21.89;53.20
43553;BME280;29153;42.696;23.218;2023-05-19T11:34:43;94705.46;;;21.92;49.99
43553;BME280;29153;42.696;23.218;2023-05-19T11:37:11;94700.36;;;21.91;52.77
43553;BME280;29153;42.696;23.218;2023-05-19T11:39:39;94692.53;;;21.79;52.06
43553;BME280;29153;42.696;23.218;2023-05-19T11:42:10;94685.69;;;21.76;57.15
43553;BME280;29153;42.696;23.218;2023-05-19T11:44:37;94683.16;;;22.13;59.82
43553;BME280;29153;42.696;23.218;2023-05-19T11:47:07;94690.06;;;21.93;54.22
43553;BME280;29153;42.696;23.218;2023-05-19T11:49:34;94698.26;;;21.96;52.69
43553;BME280;29153;42.696;23.218;2023-05-19T11:52:01;94687.80;;;21.83;52.83
43553;BME280;29153;42.696;23.218;2023-05-19T11:54:35;94697.85;;;21.52;48.91
43553;BME280;29153;42.696;23.218;2023-05-19T11:57:02;94697.14;;;21.18;48.67
43553;BME280;29153;42.696;23.218;2023-05-19T11:59:34;94694.42;;;21.00;51.62
43553;BME280;29153;42.696;23.218;2023-05-19T12:04:51;94707.59;;;20.42;60.65
43553;BME280;29153;42.696;23.218;2023-05-19T12:07:16;94699.09;;;20.05;65.57
43553;BME280;29153;42.696;23.218;2023-05-19T12:09:45;94702.39;;;19.89;62.33
43553;BME280;29153;42.696;23.218;2023-05-19T12:12:15;94702.08;;;19.76;66.62
43553;BME280;29153;42.696;23.218;2023-05-19T12:14:45;94710.14;;;19.62;69.64
43553;BME280;29153;42.696;23.218;2023-05-19T12:17:15;94714.64;;;19.49;69.96
43553;BME280;29153;42.696;23.218;2023-05-19T12:19:43;94719.93;;;19.28;66.22
43553;BME280;29153;42.696;23.218;2023-05-19T12:22:12;94725.53;;;18.74;71.83
43553;BME280;29153;42.696;23.218;2023-05-19T12:24:42;94727.69;;;18.66;75.32
43553;BME280;29153;42.696;23.218;2023-05-19T12:29:40;94753.02;;;18.37;68.22
43553;BME280;29153;42.696;23.218;2023-05-19T12:32:08;94757.99;;;18.24;71.11
43553;BME280;29153;42.696;23.218;2023-05-19T12:34:35;94750.71;;;17.90;72.44
43553;BME280;29153;42.696;23.218;2023-05-19T12:37:03;94754.33;;;17.57;73.72
43553;BME280;29153;42.696;23.218;2023-05-19T12:39:31;94746.87;;;17.37;76.32
43553;BME280;29153;42.696;23.218;2023-05-19T12:42:06;94749.08;;;17.04;75.91
43553;BME280;29153;42.696;23.218;2023-05-19T12:44:43;94736.52;;;16.93;77.21
43553;BME280;29153;42.696;23.218;2023-05-19T12:47:16;94728.66;;;17.16;79.85
43553;BME280;29153;42.696;23.218;2023-05-19T12:52:30;94720.33;;;17.18;79.90
43553;BME280;29153;42.696;23.218;2023-05-19T12:55:04;94711.37;;;17.22;81.75
43553;BME280;29153;42.696;23.218;2023-05-19T12:57:37;94708.94;;;17.23;80.32
43553;BME280;29153;42.696;23.218;2023-05-19T13:00:07;94694.07;;;17.37;82.71
43553;BME280;29153;42.696;23.218;2023-05-19T13:05:28;94680.70;;;17.65;83.50
43553;BME280;29153;42.696;23.218;2023-05-19T13:07:58;94684.25;;;17.81;82.98
43553;BME280;29153;42.696;23.218;2023-05-19T13:10:26;94686.72;;;17.88;80.64
43553;BME280;29153;42.696;23.218;2023-05-19T13:12:55;94685.30;;;17.99;79.92
43553;BME280;29153;42.696;23.218;2023-05-19T13:15:24;94681.72;;;18.10;79.29
43553;BME280;29153;42.696;23.218;2023-05-19T13:17:53;94691.59;;;18.20;78.64
43553;BME280;29153;42.696;23.218;2023-05-19T13:20:21;94691.19;;;18.33;76.39
43553;BME280;29153;42.696;23.218;2023-05-19T13:22:49;94689.99;;;18.54;78.65
43553;BME280;29153;42.696;23.218;2023-05-19T13:25:17;94687.67;;;18.67;80.79
43553;BME280;29153;42.696;23.218;2023-05-19T13:27:45;94686.70;;;18.80;77.80
43553;BME280;29153;42.696;23.218;2023-05-19T13:30:13;94685.22;;;18.91;78.49
43553;BME280;29153;42.696;23.218;2023-05-19T13:32:44;94690.70;;;18.89;74.59
43553;BME280;29153;42.696;23.218;2023-05-19T13:35:11;94690.56;;;19.00;76.49